sensor_id;sensor_type;location;lat;lon;timestamp;P1;durP1;ratioP1;P2;durP2;ratioP2
21505;SDS011;10914;48.886;9.394;2024-03-02T00:01:53;47.72;;;42.80;;
21505;SDS011;10914;48.886;9.394;2024-03-02T00:04:18;43.20;;;39.10;;
21505;SDS011;10914;48.886;9.394;2024-03-02T00:06:43;43.03;;;39.13;;
21505;SDS011;10914;48.886;9.394;2024-03-02T00:09:09;42.72;;;39.00;;
21505;SDS011;10914;48.886;9.394;2024-03-02T00:11:34;42.65;;;38.97;;
21505;SDS011;10914;48.886;9.394;2024-03-02T00:13:59;44.55;;;40.45;;
21505;SDS011;10914;48.886;9.394;2024-03-02T00:16:29;43.45;;;39.45;;
21505;SDS011;10914;48.886;9.394;2024-03-02T00:18:54;47.65;;;43.17;;
21505;SDS011;10914;48.886;9.394;2024-03-02T00:21:19;47.13;;;42.33;;
21505;SDS011;10914;48.886;9.394;2024-03-02T00:23:47;47.42;;;42.83;;
21505;SDS011;10914;48.886;9.394;2024-03-02T00:26:13;44.92;;;40.63;;
21505;SDS011;10914;48.886;9.394;2024-03-02T00:28:39;43.95;;;39.47;;
21505;SDS011;10914;48.886;9.394;2024-03-02T00:31:05;43.22;;;39.13;;
21505;SDS011;10914;48.886;9.394;2024-03-02T00:35:56;44.85;;;40.55;;
21505;SDS011;10914;48.886;9.394;2024-03-02T00:38:22;48.40;;;43.67;;
21505;SDS011;10914;48.886;9.394;2024-03-02T00:40:47;49.75;;;44.75;;
21505;SDS011;10914;48.886;9.394;2024-03-02T00:43:41;51.47;;;46.50;;
21505;SDS011;10914;48.886;9.394;2024-03-02T00:46:06;44.03;;;40.17;;
21505;SDS011;10914;48.886;9.394;2024-03-02T00:48:31;43.33;;;39.53;;
21505;SDS011;10914;48.886;9.394;2024-03-02T00:50:56;44.35;;;40.15;;
21505;SDS011;10914;48.886;9.394;2024-03-02T00:53:23;40.78;;;37.28;;
21505;SDS011;10914;48.886;9.394;2024-03-02T00:55:52;45.97;;;41.90;;
21505;SDS011;10914;48.886;9.394;2024-03-02T00:58:17;49.90;;;45.00;;
21505;SDS011;10914;48.886;9.394;2024-03-02T01:00:42;49.87;;;44.80;;
21505;SDS011;10914;48.886;9.394;2024-03-02T01:03:07;43.78;;;39.92;;
21505;SDS011;10914;48.886;9.394;2024-03-02T01:05:33;48.13;;;43.53;;
21505;SDS011;10914;48.886;9.394;2024-03-02T01:07:58;42.63;;;38.92;;
21505;SDS011;10914;48.886;9.394;2024-03-02T01:10:23;44.45;;;40.45;;
21505;SDS011;10914;48.886;9.394;2024-03-02T01:12:48;45.40;;;40.85;;
21505;SDS011;10914;48.886;9.394;2024-03-02T01:15:13;45.05;;;40.60;;
21505;SDS011;10914;48.886;9.394;2024-03-02T01:17:38;43.30;;;39.30;;
21505;SDS011;10914;48.886;9.394;2024-03-02T01:20:04;42.50;;;38.72;;
21505;SDS011;10914;48.886;9.394;2024-03-02T01:22:29;43.13;;;38.92;;
21505;SDS011;10914;48.886;9.394;2024-03-02T01:24:54;43.30;;;39.65;;
21505;SDS011;10914;48.886;9.394;2024-03-02T01:27:20;50.60;;;45.72;;
21505;SDS011;10914;48.886;9.394;2024-03-02T01:29:45;47.13;;;42.58;;
21505;SDS011;10914;48.886;9.394;2024-03-02T01:32:10;46.75;;;42.55;;
21505;SDS011;10914;48.886;9.394;2024-03-02T01:34:35;50.85;;;45.90;;
21505;SDS011;10914;48.886;9.394;2024-03-02T01:37:00;47.85;;;43.72;;
21505;SDS011;10914;48.886;9.394;2024-03-02T01:39:25;52.30;;;47.13;;
21505;SDS011;10914;48.886;9.394;2024-03-02T01:41:51;46.88;;;42.72;;
21505;SDS011;10914;48.886;9.394;2024-03-02T01:44:16;45.10;;;41.30;;
21505;SDS011;10914;48.886;9.394;2024-03-02T01:46:42;47.63;;;43.00;;
21505;SDS011;10914;48.886;9.394;2024-03-02T01:49:07;51.17;;;45.97;;
21505;SDS011;10914;48.886;9.394;2024-03-02T01:51:32;53.45;;;48.00;;
21505;SDS011;10914;48.886;9.394;2024-03-02T01:53:57;48.30;;;43.70;;
21505;SDS011;10914;48.886;9.394;2024-03-02T01:56:22;49.92;;;45.13;;
21505;SDS011;10914;48.886;9.394;2024-03-02T01:58:47;46.83;;;42.47;;
21505;SDS011;10914;48.886;9.394;2024-03-02T02:01:13;49.22;;;44.17;;
21505;SDS011;10914;48.886;9.394;2024-03-02T02:03:38;55.55;;;50.42;;
21505;SDS011;10914;48.886;9.394;2024-03-02T02:06:03;48.03;;;44.08;;
21505;SDS011;10914;48.886;9.394;2024-03-02T02:08:28;49.05;;;45.03;;
21505;SDS011;10914;48.886;9.394;2024-03-02T02:10:53;51.30;;;47.05;;
21505;SDS011;10914;48.886;9.394;2024-03-02T02:13:18;50.67;;;46.65;;
21505;SDS011;10914;48.886;9.394;2024-03-02T02:15:44;50.15;;;45.65;;
21505;SDS011;10914;48.886;9.394;2024-03-02T02:18:09;44.45;;;40.35;;
21505;SDS011;10914;48.886;9.394;2024-03-02T02:20:34;47.47;;;43.00;;
21505;SDS011;10914;48.886;9.394;2024-03-02T02:23:02;45.15;;;41.00;;
21505;SDS011;10914;48.886;9.394;2024-03-02T02:25:28;44.67;;;40.70;;
21505;SDS011;10914;48.886;9.394;2024-03-02T02:27:54;44.97;;;40.78;;
21505;SDS011;10914;48.886;9.394;2024-03-02T02:30:20;49.40;;;44.35;;
21505;SDS011;10914;48.886;9.394;2024-03-02T02:32:46;43.90;;;39.67;;
21505;SDS011;10914;48.886;9.394;2024-03-02T02:35:11;42.75;;;38.88;;
21505;SDS011;10914;48.886;9.394;2024-03-02T02:37:36;44.13;;;40.00;;
21505;SDS011;10914;48.886;9.394;2024-03-02T02:40:01;42.25;;;38.50;;
21505;SDS011;10914;48.886;9.394;2024-03-02T02:42:27;45.47;;;41.03;;
21505;SDS011;10914;48.886;9.394;2024-03-02T02:44:52;44.13;;;40.03;;
21505;SDS011;10914;48.886;9.394;2024-03-02T02:47:17;45.10;;;40.78;;
21505;SDS011;10914;48.886;9.394;2024-03-02T02:49:42;41.27;;;37.73;;
21505;SDS011;10914;48.886;9.394;2024-03-02T02:52:07;44.33;;;39.97;;
21505;SDS011;10914;48.886;9.394;2024-03-02T02:54:32;42.63;;;38.70;;
21505;SDS011;10914;48.886;9.394;2024-03-02T02:56:58;43.47;;;39.47;;
21505;SDS011;10914;48.886;9.394;2024-03-02T02:59:24;45.88;;;41.30;;
21505;SDS011;10914;48.886;9.394;2024-03-02T03:01:51;43.45;;;39.40;;
21505;SDS011;10914;48.886;9.394;2024-03-02T03:04:16;44.97;;;40.75;;
21505;SDS011;10914;48.886;9.394;2024-03-02T03:06:41;50.17;;;45.00;;
21505;SDS011;10914;48.886;9.394;2024-03-02T03:09:06;47.15;;;42.55;;
21505;SDS011;10914;48.886;9.394;2024-03-02T03:11:31;44.88;;;41.00;;
21505;SDS011;10914;48.886;9.394;2024-03-02T03:13:56;49.33;;;44.25;;
21505;SDS011;10914;48.886;9.394;2024-03-02T03:16:22;52.17;;;46.50;;
21505;SDS011;10914;48.886;9.394;2024-03-02T03:18:47;48.83;;;44.17;;
21505;SDS011;10914;48.886;9.394;2024-03-02T03:21:12;54.85;;;48.72;;
21505;SDS011;10914;48.886;9.394;2024-03-02T03:23:37;53.95;;;47.85;;
21505;SDS011;10914;48.886;9.394;2024-03-02T03:26:02;50.50;;;45.38;;
21505;SDS011;10914;48.886;9.394;2024-03-02T03:28:29;59.33;;;49.90;;
21505;SDS011;10914;48.886;9.394;2024-03-02T03:30:54;46.28;;;41.97;;
21505;SDS011;10914;48.886;9.394;2024-03-02T03:33:19;48.90;;;44.30;;
21505;SDS011;10914;48.886;9.394;2024-03-02T03:35:44;43.78;;;39.85;;
21505;SDS011;10914;48.886;9.394;2024-03-02T03:38:10;51.47;;;45.97;;
21505;SDS011;10914;48.886;9.394;2024-03-02T03:40:35;46.90;;;42.17;;
21505;SDS011;10914;48.886;9.394;2024-03-02T03:43:00;49.85;;;44.33;;
21505;SDS011;10914;48.886;9.394;2024-03-02T03:45:25;46.28;;;41.78;;
21505;SDS011;10914;48.886;9.394;2024-03-02T03:47:51;46.47;;;42.15;;
21505;SDS011;10914;48.886;9.394;2024-03-02T03:50:16;43.17;;;39.07;;
21505;SDS011;10914;48.886;9.394;2024-03-02T03:52:42;47.85;;;43.05;;
21505;SDS011;10914;48.886;9.394;2024-03-02T03:55:07;47.35;;;42.83;;
21505;SDS011;10914;48.886;9.394;2024-03-02T03:57:32;48.35;;;43.58;;
21505;SDS011;10914;48.886;9.394;2024-03-02T03:59:57;46.60;;;42.42;;
21505;SDS011;10914;48.886;9.394;2024-03-02T04:02:22;45.15;;;40.72;;
21505;SDS011;10914;48.886;9.394;2024-03-02T04:04:49;45.67;;;41.08;;
21505;SDS011;10914;48.886;9.394;2024-03-02T04:07:14;47.20;;;42.40;;
21505;SDS011;10914;48.886;9.394;2024-03-02T04:09:39;49.88;;;43.88;;
21505;SDS011;10914;48.886;9.394;2024-03-02T04:12:05;44.00;;;39.77;;
21505;SDS011;10914;48.886;9.394;2024-03-02T04:14:30;44.60;;;40.20;;
21505;SDS011;10914;48.886;9.394;2024-03-02T04:16:55;46.67;;;42.17;;
21505;SDS011;10914;48.886;9.394;2024-03-02T04:19:20;44.33;;;40.05;;
21505;SDS011;10914;48.886;9.394;2024-03-02T04:21:45;44.05;;;39.92;;
21505;SDS011;10914;48.886;9.394;2024-03-02T04:24:11;49.45;;;44.10;;
21505;SDS011;10914;48.886;9.394;2024-03-02T04:26:36;46.00;;;41.05;;
21505;SDS011;10914;48.886;9.394;2024-03-02T04:29:01;45.88;;;41.10;;
21505;SDS011;10914;48.886;9.394;2024-03-02T04:31:26;47.78;;;42.58;;
21505;SDS011;10914;48.886;9.394;2024-03-02T04:33:52;44.03;;;39.47;;
21505;SDS011;10914;48.886;9.394;2024-03-02T04:36:17;42.63;;;38.72;;
21505;SDS011;10914;48.886;9.394;2024-03-02T04:38:42;50.80;;;45.25;;
21505;SDS011;10914;48.886;9.394;2024-03-02T04:41:07;50.80;;;45.25;;
21505;SDS011;10914;48.886;9.394;2024-03-02T04:43:33;43.88;;;39.72;;
21505;SDS011;10914;48.886;9.394;2024-03-02T04:45:58;42.83;;;38.88;;
21505;SDS011;10914;48.886;9.394;2024-03-02T04:48:23;47.42;;;42.75;;
21505;SDS011;10914;48.886;9.394;2024-03-02T04:50:49;52.88;;;47.38;;
21505;SDS011;10914;48.886;9.394;2024-03-02T04:53:14;51.17;;;46.03;;
21505;SDS011;10914;48.886;9.394;2024-03-02T04:55:39;47.78;;;43.28;;
21505;SDS011;10914;48.886;9.394;2024-03-02T04:58:04;47.28;;;42.95;;
21505;SDS011;10914;48.886;9.394;2024-03-02T05:00:30;47.25;;;42.65;;
21505;SDS011;10914;48.886;9.394;2024-03-02T05:02:55;52.80;;;47.20;;
21505;SDS011;10914;48.886;9.394;2024-03-02T05:05:20;54.95;;;49.15;;
21505;SDS011;10914;48.886;9.394;2024-03-02T05:07:45;47.85;;;42.70;;
21505;SDS011;10914;48.886;9.394;2024-03-02T05:10:10;46.67;;;42.08;;
21505;SDS011;10914;48.886;9.394;2024-03-02T05:12:39;47.95;;;43.03;;
21505;SDS011;10914;48.886;9.394;2024-03-02T05:15:07;47.88;;;42.92;;
21505;SDS011;10914;48.886;9.394;2024-03-02T05:17:32;55.50;;;46.40;;
21505;SDS011;10914;48.886;9.394;2024-03-02T05:19:58;59.13;;;46.35;;
21505;SDS011;10914;48.886;9.394;2024-03-02T05:22:23;47.88;;;42.97;;
21505;SDS011;10914;48.886;9.394;2024-03-02T05:24:48;56.60;;;51.05;;
21505;SDS011;10914;48.886;9.394;2024-03-02T05:27:14;51.50;;;46.13;;
21505;SDS011;10914;48.886;9.394;2024-03-02T05:29:39;53.55;;;48.60;;
21505;SDS011;10914;48.886;9.394;2024-03-02T05:32:04;60.35;;;54.45;;
21505;SDS011;10914;48.886;9.394;2024-03-02T05:34:30;57.13;;;47.53;;
21505;SDS011;10914;48.886;9.394;2024-03-02T05:36:55;54.45;;;48.80;;
21505;SDS011;10914;48.886;9.394;2024-03-02T05:39:21;56.65;;;49.65;;
21505;SDS011;10914;48.886;9.394;2024-03-02T05:41:46;58.37;;;50.03;;
21505;SDS011;10914;48.886;9.394;2024-03-02T05:44:11;54.50;;;47.63;;
21505;SDS011;10914;48.886;9.394;2024-03-02T05:46:37;56.80;;;44.95;;
21505;SDS011;10914;48.886;9.394;2024-03-02T05:49:02;67.78;;;47.78;;
21505;SDS011;10914;48.886;9.394;2024-03-02T05:51:27;51.58;;;45.95;;
21505;SDS011;10914;48.886;9.394;2024-03-02T05:53:53;55.72;;;44.60;;
21505;SDS011;10914;48.886;9.394;2024-03-02T05:56:18;63.05;;;50.15;;
21505;SDS011;10914;48.886;9.394;2024-03-02T05:58:43;54.47;;;44.70;;
21505;SDS011;10914;48.886;9.394;2024-03-02T06:01:22;51.38;;;45.88;;
21505;SDS011;10914;48.886;9.394;2024-03-02T06:03:53;60.88;;;48.40;;
21505;SDS011;10914;48.886;9.394;2024-03-02T06:06:18;56.15;;;47.38;;
21505;SDS011;10914;48.886;9.394;2024-03-02T06:08:43;59.80;;;46.63;;
21505;SDS011;10914;48.886;9.394;2024-03-02T06:11:08;58.42;;;48.78;;
21505;SDS011;10914;48.886;9.394;2024-03-02T06:13:34;49.38;;;44.17;;
21505;SDS011;10914;48.886;9.394;2024-03-02T06:15:59;54.38;;;47.70;;
21505;SDS011;10914;48.886;9.394;2024-03-02T06:18:24;48.40;;;43.33;;
21505;SDS011;10914;48.886;9.394;2024-03-02T06:20:49;52.65;;;47.33;;
21505;SDS011;10914;48.886;9.394;2024-03-02T06:23:14;70.20;;;59.57;;
21505;SDS011;10914;48.886;9.394;2024-03-02T06:25:40;50.80;;;45.72;;
21505;SDS011;10914;48.886;9.394;2024-03-02T06:28:05;59.75;;;49.70;;
21505;SDS011;10914;48.886;9.394;2024-03-02T06:30:30;60.72;;;49.00;;
21505;SDS011;10914;48.886;9.394;2024-03-02T06:32:55;56.42;;;49.13;;
21505;SDS011;10914;48.886;9.394;2024-03-02T06:35:21;55.90;;;46.15;;
21505;SDS011;10914;48.886;9.394;2024-03-02T06:37:46;45.08;;;40.72;;
21505;SDS011;10914;48.886;9.394;2024-03-02T06:40:11;53.40;;;45.53;;
21505;SDS011;10914;48.886;9.394;2024-03-02T06:42:36;48.70;;;42.97;;
21505;SDS011;10914;48.886;9.394;2024-03-02T06:45:02;47.45;;;42.25;;
21505;SDS011;10914;48.886;9.394;2024-03-02T06:47:27;55.72;;;45.17;;
21505;SDS011;10914;48.886;9.394;2024-03-02T06:49:52;55.95;;;45.55;;
21505;SDS011;10914;48.886;9.394;2024-03-02T06:52:18;60.25;;;46.53;;
21505;SDS011;10914;48.886;9.394;2024-03-02T06:54:43;53.03;;;45.10;;
21505;SDS011;10914;48.886;9.394;2024-03-02T06:57:08;53.38;;;47.25;;
21505;SDS011;10914;48.886;9.394;2024-03-02T06:59:34;56.92;;;47.28;;
21505;SDS011;10914;48.886;9.394;2024-03-02T07:01:59;68.03;;;61.75;;
21505;SDS011;10914;48.886;9.394;2024-03-02T07:04:24;134.23;;;123.40;;
21505;SDS011;10914;48.886;9.394;2024-03-02T07:06:49;102.43;;;94.67;;
21505;SDS011;10914;48.886;9.394;2024-03-02T07:09:14;67.50;;;61.15;;
21505;SDS011;10914;48.886;9.394;2024-03-02T07:11:39;59.65;;;54.30;;
21505;SDS011;10914;48.886;9.394;2024-03-02T07:14:05;59.08;;;52.80;;
21505;SDS011;10914;48.886;9.394;2024-03-02T07:16:31;59.03;;;52.97;;
21505;SDS011;10914;48.886;9.394;2024-03-02T07:18:57;80.90;;;73.95;;
21505;SDS011;10914;48.886;9.394;2024-03-02T07:21:23;76.88;;;70.05;;
21505;SDS011;10914;48.886;9.394;2024-03-02T07:23:49;74.25;;;68.10;;
21505;SDS011;10914;48.886;9.394;2024-03-02T07:26:15;136.73;;;127.45;;
21505;SDS011;10914;48.886;9.394;2024-03-02T07:28:40;87.32;;;80.30;;
21505;SDS011;10914;48.886;9.394;2024-03-02T07:31:06;69.55;;;63.75;;
21505;SDS011;10914;48.886;9.394;2024-03-02T07:33:31;58.28;;;53.17;;
21505;SDS011;10914;48.886;9.394;2024-03-02T07:35:57;59.05;;;54.03;;
21505;SDS011;10914;48.886;9.394;2024-03-02T07:38:22;59.88;;;54.65;;
21505;SDS011;10914;48.886;9.394;2024-03-02T07:40:48;43.53;;;39.58;;
21505;SDS011;10914;48.886;9.394;2024-03-02T07:43:15;42.10;;;38.22;;
21505;SDS011;10914;48.886;9.394;2024-03-02T07:45:40;42.70;;;38.60;;
21505;SDS011;10914;48.886;9.394;2024-03-02T07:48:06;42.28;;;38.47;;
21505;SDS011;10914;48.886;9.394;2024-03-02T07:50:31;40.55;;;36.83;;
21505;SDS011;10914;48.886;9.394;2024-03-02T07:52:59;38.78;;;35.20;;
21505;SDS011;10914;48.886;9.394;2024-03-02T07:55:24;37.60;;;34.38;;
21505;SDS011;10914;48.886;9.394;2024-03-02T07:57:50;39.03;;;35.60;;
21505;SDS011;10914;48.886;9.394;2024-03-02T08:00:15;39.92;;;36.65;;
21505;SDS011;10914;48.886;9.394;2024-03-02T08:02:40;38.78;;;35.78;;
21505;SDS011;10914;48.886;9.394;2024-03-02T08:05:05;39.13;;;35.92;;
21505;SDS011;10914;48.886;9.394;2024-03-02T08:07:31;38.35;;;35.45;;
21505;SDS011;10914;48.886;9.394;2024-03-02T08:09:56;40.75;;;37.55;;
21505;SDS011;10914;48.886;9.394;2024-03-02T08:12:21;36.63;;;33.63;;
21505;SDS011;10914;48.886;9.394;2024-03-02T08:14:48;35.55;;;32.70;;
21505;SDS011;10914;48.886;9.394;2024-03-02T08:17:13;34.42;;;31.83;;
21505;SDS011;10914;48.886;9.394;2024-03-02T08:19:38;33.33;;;30.70;;
21505;SDS011;10914;48.886;9.394;2024-03-02T08:22:03;33.97;;;31.17;;
21505;SDS011;10914;48.886;9.394;2024-03-02T08:24:29;33.72;;;30.92;;
21505;SDS011;10914;48.886;9.394;2024-03-02T08:26:54;33.53;;;31.00;;
21505;SDS011;10914;48.886;9.394;2024-03-02T08:29:19;32.70;;;30.27;;
21505;SDS011;10914;48.886;9.394;2024-03-02T08:31:44;32.88;;;30.35;;
21505;SDS011;10914;48.886;9.394;2024-03-02T08:34:09;31.75;;;29.23;;
21505;SDS011;10914;48.886;9.394;2024-03-02T08:36:34;32.53;;;30.02;;
21505;SDS011;10914;48.886;9.394;2024-03-02T08:39:00;32.28;;;29.90;;
21505;SDS011;10914;48.886;9.394;2024-03-02T08:41:26;32.00;;;29.70;;
21505;SDS011;10914;48.886;9.394;2024-03-02T08:43:51;32.45;;;30.20;;
21505;SDS011;10914;48.886;9.394;2024-03-02T08:46:16;31.33;;;28.83;;
21505;SDS011;10914;48.886;9.394;2024-03-02T08:48:41;30.58;;;28.38;;
21505;SDS011;10914;48.886;9.394;2024-03-02T08:51:06;29.80;;;27.80;;
21505;SDS011;10914;48.886;9.394;2024-03-02T08:53:33;30.83;;;28.63;;
21505;SDS011;10914;48.886;9.394;2024-03-02T08:55:58;29.93;;;27.93;;
21505;SDS011;10914;48.886;9.394;2024-03-02T08:58:24;31.02;;;28.77;;
21505;SDS011;10914;48.886;9.394;2024-03-02T09:00:49;31.43;;;29.23;;
21505;SDS011;10914;48.886;9.394;2024-03-02T09:03:14;31.60;;;28.98;;
21505;SDS011;10914;48.886;9.394;2024-03-02T09:05:39;31.10;;;28.90;;
21505;SDS011;10914;48.886;9.394;2024-03-02T09:08:05;31.58;;;29.38;;
21505;SDS011;10914;48.886;9.394;2024-03-02T09:10:30;30.73;;;28.60;;
21505;SDS011;10914;48.886;9.394;2024-03-02T09:12:55;32.33;;;29.92;;
21505;SDS011;10914;48.886;9.394;2024-03-02T09:15:20;31.05;;;28.90;;
21505;SDS011;10914;48.886;9.394;2024-03-02T09:17:46;31.33;;;29.02;;
21505;SDS011;10914;48.886;9.394;2024-03-02T09:20:11;28.92;;;26.90;;
21505;SDS011;10914;48.886;9.394;2024-03-02T09:22:36;29.20;;;27.20;;
21505;SDS011;10914;48.886;9.394;2024-03-02T09:25:01;30.60;;;28.50;;
21505;SDS011;10914;48.886;9.394;2024-03-02T09:27:27;29.92;;;27.85;;
21505;SDS011;10914;48.886;9.394;2024-03-02T09:29:52;29.13;;;27.27;;
21505;SDS011;10914;48.886;9.394;2024-03-02T09:32:17;31.23;;;29.00;;
21505;SDS011;10914;48.886;9.394;2024-03-02T09:34:42;31.03;;;28.93;;
21505;SDS011;10914;48.886;9.394;2024-03-02T09:37:08;30.63;;;28.63;;
21505;SDS011;10914;48.886;9.394;2024-03-02T09:39:33;29.05;;;26.95;;
21505;SDS011;10914;48.886;9.394;2024-03-02T09:41:58;29.70;;;27.80;;
21505;SDS011;10914;48.886;9.394;2024-03-02T09:44:24;30.27;;;28.38;;
21505;SDS011;10914;48.886;9.394;2024-03-02T09:46:50;29.42;;;27.63;;
21505;SDS011;10914;48.886;9.394;2024-03-02T09:49:15;31.73;;;29.63;;
21505;SDS011;10914;48.886;9.394;2024-03-02T09:51:41;32.83;;;30.70;;
21505;SDS011;10914;48.886;9.394;2024-03-02T09:54:11;31.73;;;29.63;;
21505;SDS011;10914;48.886;9.394;2024-03-02T09:56:36;30.80;;;28.88;;
21505;SDS011;10914;48.886;9.394;2024-03-02T09:59:01;29.47;;;27.63;;
21505;SDS011;10914;48.886;9.394;2024-03-02T10:01:26;29.27;;;27.47;;
21505;SDS011;10914;48.886;9.394;2024-03-02T10:03:52;28.00;;;26.27;;
21505;SDS011;10914;48.886;9.394;2024-03-02T10:06:21;28.08;;;26.27;;
21505;SDS011;10914;48.886;9.394;2024-03-02T10:08:46;27.45;;;25.80;;
21505;SDS011;10914;48.886;9.394;2024-03-02T10:11:29;26.80;;;25.13;;
21505;SDS011;10914;48.886;9.394;2024-03-02T10:14:08;26.60;;;25.00;;
21505;SDS011;10914;48.886;9.394;2024-03-02T10:16:37;26.35;;;24.67;;
21505;SDS011;10914;48.886;9.394;2024-03-02T10:21:40;26.73;;;25.02;;
21505;SDS011;10914;48.886;9.394;2024-03-02T10:24:06;25.45;;;23.75;;
21505;SDS011;10914;48.886;9.394;2024-03-02T10:26:31;24.95;;;23.55;;
21505;SDS011;10914;48.886;9.394;2024-03-02T10:28:57;25.67;;;24.02;;
21505;SDS011;10914;48.886;9.394;2024-03-02T10:31:24;24.63;;;23.20;;
21505;SDS011;10914;48.886;9.394;2024-03-02T10:33:52;24.75;;;23.25;;
21505;SDS011;10914;48.886;9.394;2024-03-02T10:36:17;24.87;;;23.37;;
21505;SDS011;10914;48.886;9.394;2024-03-02T10:38:43;24.90;;;23.40;;
21505;SDS011;10914;48.886;9.394;2024-03-02T10:41:09;24.35;;;22.95;;
21505;SDS011;10914;48.886;9.394;2024-03-02T10:43:34;23.98;;;22.60;;
21505;SDS011;10914;48.886;9.394;2024-03-02T10:45:59;24.15;;;22.83;;
21505;SDS011;10914;48.886;9.394;2024-03-02T10:48:25;23.73;;;22.43;;
21505;SDS011;10914;48.886;9.394;2024-03-02T10:50:50;24.10;;;22.70;;
21505;SDS011;10914;48.886;9.394;2024-03-02T10:53:16;26.98;;;25.48;;
21505;SDS011;10914;48.886;9.394;2024-03-02T10:55:41;25.37;;;24.07;;
21505;SDS011;10914;48.886;9.394;2024-03-02T10:58:06;24.07;;;22.67;;
21505;SDS011;10914;48.886;9.394;2024-03-02T11:00:33;22.75;;;21.50;;
21505;SDS011;10914;48.886;9.394;2024-03-02T11:03:05;22.33;;;21.10;;
21505;SDS011;10914;48.886;9.394;2024-03-02T11:05:37;22.27;;;21.08;;
21505;SDS011;10914;48.886;9.394;2024-03-02T11:08:06;21.70;;;20.42;;
21505;SDS011;10914;48.886;9.394;2024-03-02T11:10:36;20.80;;;19.70;;
21505;SDS011;10914;48.886;9.394;2024-03-02T11:13:02;20.88;;;19.77;;
21505;SDS011;10914;48.886;9.394;2024-03-02T11:15:29;20.27;;;19.17;;
21505;SDS011;10914;48.886;9.394;2024-03-02T11:17:55;21.48;;;20.38;;
21505;SDS011;10914;48.886;9.394;2024-03-02T11:20:21;21.98;;;20.88;;
21505;SDS011;10914;48.886;9.394;2024-03-02T11:22:47;22.90;;;21.70;;
21505;SDS011;10914;48.886;9.394;2024-03-02T11:25:28;21.55;;;20.45;;
21505;SDS011;10914;48.886;9.394;2024-03-02T11:33:05;20.02;;;18.95;;
21505;SDS011;10914;48.886;9.394;2024-03-02T11:35:37;18.67;;;17.77;;
21505;SDS011;10914;48.886;9.394;2024-03-02T11:38:02;18.63;;;17.70;;
21505;SDS011;10914;48.886;9.394;2024-03-02T11:40:28;18.90;;;17.92;;
21505;SDS011;10914;48.886;9.394;2024-03-02T11:42:54;18.42;;;17.42;;
21505;SDS011;10914;48.886;9.394;2024-03-02T11:45:22;18.85;;;17.95;;
21505;SDS011;10914;48.886;9.394;2024-03-02T11:47:51;18.40;;;17.50;;
21505;SDS011;10914;48.886;9.394;2024-03-02T11:50:31;18.15;;;17.25;;
21505;SDS011;10914;48.886;9.394;2024-03-02T11:52:58;18.25;;;17.27;;
21505;SDS011;10914;48.886;9.394;2024-03-02T11:55:24;17.90;;;17.10;;
21505;SDS011;10914;48.886;9.394;2024-03-02T11:57:50;18.25;;;17.33;;
21505;SDS011;10914;48.886;9.394;2024-03-02T12:00:17;18.02;;;17.05;;
21505;SDS011;10914;48.886;9.394;2024-03-02T12:02:42;18.00;;;17.13;;
21505;SDS011;10914;48.886;9.394;2024-03-02T12:05:12;18.13;;;17.23;;
21505;SDS011;10914;48.886;9.394;2024-03-02T12:07:38;18.13;;;17.23;;
21505;SDS011;10914;48.886;9.394;2024-03-02T12:10:03;18.30;;;17.40;;
21505;SDS011;10914;48.886;9.394;2024-03-02T12:12:28;17.93;;;17.03;;
21505;SDS011;10914;48.886;9.394;2024-03-02T12:14:53;18.42;;;17.52;;
21505;SDS011;10914;48.886;9.394;2024-03-02T12:17:20;19.27;;;18.27;;
21505;SDS011;10914;48.886;9.394;2024-03-02T12:19:45;19.05;;;18.15;;
21505;SDS011;10914;48.886;9.394;2024-03-02T12:22:11;18.88;;;17.98;;
21505;SDS011;10914;48.886;9.394;2024-03-02T12:24:36;19.17;;;18.27;;
21505;SDS011;10914;48.886;9.394;2024-03-02T12:27:02;18.88;;;17.98;;
21505;SDS011;10914;48.886;9.394;2024-03-02T12:29:27;18.67;;;17.77;;
21505;SDS011;10914;48.886;9.394;2024-03-02T12:31:53;19.13;;;18.02;;
21505;SDS011;10914;48.886;9.394;2024-03-02T12:34:18;18.63;;;17.73;;
21505;SDS011;10914;48.886;9.394;2024-03-02T12:36:45;18.33;;;17.42;;
21505;SDS011;10914;48.886;9.394;2024-03-02T12:39:12;19.13;;;18.02;;
21505;SDS011;10914;48.886;9.394;2024-03-02T12:41:37;19.45;;;18.35;;
21505;SDS011;10914;48.886;9.394;2024-03-02T12:44:03;19.15;;;17.98;;
21505;SDS011;10914;48.886;9.394;2024-03-02T12:46:28;17.70;;;16.88;;
21505;SDS011;10914;48.886;9.394;2024-03-02T12:48:54;17.90;;;17.00;;
21505;SDS011;10914;48.886;9.394;2024-03-02T12:51:19;18.38;;;17.38;;
21505;SDS011;10914;48.886;9.394;2024-03-02T12:53:44;18.23;;;17.33;;
21505;SDS011;10914;48.886;9.394;2024-03-02T12:56:09;18.50;;;17.60;;
21505;SDS011;10914;48.886;9.394;2024-03-02T12:58:41;17.95;;;17.05;;
21505;SDS011;10914;48.886;9.394;2024-03-02T13:01:07;17.55;;;16.65;;
21505;SDS011;10914;48.886;9.394;2024-03-02T13:03:39;17.60;;;16.70;;
21505;SDS011;10914;48.886;9.394;2024-03-02T13:06:05;17.10;;;16.30;;
21505;SDS011;10914;48.886;9.394;2024-03-02T13:08:30;17.80;;;16.88;;
21505;SDS011;10914;48.886;9.394;2024-03-02T13:10:55;17.43;;;16.53;;
21505;SDS011;10914;48.886;9.394;2024-03-02T13:13:20;17.60;;;16.70;;
21505;SDS011;10914;48.886;9.394;2024-03-02T13:15:46;18.10;;;17.20;;
21505;SDS011;10914;48.886;9.394;2024-03-02T13:18:11;17.47;;;16.57;;
21505;SDS011;10914;48.886;9.394;2024-03-02T13:20:36;17.80;;;16.90;;
21505;SDS011;10914;48.886;9.394;2024-03-02T13:23:02;17.90;;;16.90;;
21505;SDS011;10914;48.886;9.394;2024-03-02T13:25:27;18.03;;;17.10;;
21505;SDS011;10914;48.886;9.394;2024-03-02T13:27:52;16.60;;;15.80;;
21505;SDS011;10914;48.886;9.394;2024-03-02T13:30:17;17.03;;;16.23;;
21505;SDS011;10914;48.886;9.394;2024-03-02T13:32:42;16.93;;;16.10;;
21505;SDS011;10914;48.886;9.394;2024-03-02T13:35:08;16.65;;;15.82;;
21505;SDS011;10914;48.886;9.394;2024-03-02T13:37:36;16.05;;;15.35;;
21505;SDS011;10914;48.886;9.394;2024-03-02T13:40:01;16.43;;;15.63;;
21505;SDS011;10914;48.886;9.394;2024-03-02T13:42:26;16.50;;;15.60;;
21505;SDS011;10914;48.886;9.394;2024-03-02T13:44:52;16.52;;;15.73;;
21505;SDS011;10914;48.886;9.394;2024-03-02T13:47:17;15.97;;;15.17;;
21505;SDS011;10914;48.886;9.394;2024-03-02T13:49:42;16.47;;;15.57;;
21505;SDS011;10914;48.886;9.394;2024-03-02T13:52:11;16.75;;;16.00;;
21505;SDS011;10914;48.886;9.394;2024-03-02T13:54:41;16.80;;;16.00;;
21505;SDS011;10914;48.886;9.394;2024-03-02T13:57:07;16.67;;;15.88;;
21505;SDS011;10914;48.886;9.394;2024-03-02T13:59:32;17.52;;;16.67;;
21505;SDS011;10914;48.886;9.394;2024-03-02T14:01:58;18.50;;;17.58;;
21505;SDS011;10914;48.886;9.394;2024-03-02T14:04:23;17.20;;;16.40;;
21505;SDS011;10914;48.886;9.394;2024-03-02T14:06:48;17.00;;;16.20;;
21505;SDS011;10914;48.886;9.394;2024-03-02T14:09:14;17.37;;;16.57;;
21505;SDS011;10914;48.886;9.394;2024-03-02T14:11:39;16.77;;;16.00;;
21505;SDS011;10914;48.886;9.394;2024-03-02T14:14:04;19.73;;;18.83;;
21505;SDS011;10914;48.886;9.394;2024-03-02T14:16:30;17.27;;;16.47;;
21505;SDS011;10914;48.886;9.394;2024-03-02T14:18:55;17.60;;;16.60;;
21505;SDS011;10914;48.886;9.394;2024-03-02T14:21:21;17.55;;;16.55;;
21505;SDS011;10914;48.886;9.394;2024-03-02T14:23:46;17.23;;;16.20;;